Airfield :
LOGIN :

Register | Disclaimer

   EN    FR    IT 

 










Legend :    VFR   Marginal VFR   IFR   Intensive IFR   Very Intensive IFR
Visi :
Ceiling :
>= 8 km
>= 3000ft
5 to 8 km
1000 to 3000 ft
1500m to 5 km
500 to 1000 ft
800 to 1500m
200 to 500 ft
< 800m
< 200 ft
Symbols :   Thunderstorms  Fog  Heavy snow  Heavy precipitations  Wind > 20 kt
SIGMETs :     Misc.  Thunderstorms  Icing  Turbulence  Mountain Waves  Volcanic Ashes







- Airport Elevation : 215 ft
- IATA code : ABZ
- Download approach charts


EGPD - Aberdeen / Dyce

CURRENT METAR :
  • 210920Z 32008KT 3500 R34/1100 -RADZ FEW010 BKN013 BKN029 10/09 Q1026 RESHRA TEMPO 9999 SCT013

EXPIRED METARs :
  • 210850Z 32012KT 9999 4000N SHRA FEW013 SCT019 BKN029 12/09 Q1025 RESHRA TEMPO 9999 NSW
  • 210820Z AUTO 23007KT 180V260 9999 SCT039 BKN046 12/08 Q1024 NOSIG
  • 210750Z AUTO 23009KT 9999 NCD 12/08 Q1023
  • 210720Z 22008KT 9999 SCT045 11/08 Q1023 NOSIG
  • 210650Z 20005KT 9999 SCT045 11/07 Q1022 NOSIG

TAF AMD TAF EGPD
Valid from the 21 at 08:00 until the 22 at 06:00 UTC


210859Z 2108/2206 32012KT 9999 FEW010 SCT030
PROB30
TEMPO 2109/2111 4000 RA BKN010
BECMG 2111/2115 12010KT
PROB30
TEMPO 2111/2120 8000 -RA BKN010
BECMG 2119/2122 18010KT
TEMPO 2120/2206 BKN010
BECMG 2200/2203 18015G25KT
No reported NOTAMs for that airfield.



MET'MAP, your aeronautical weather chart ! - Copyright ORBIFLY December 2007 - Disclaimer

ORBIFLY MET'MAP TEAM :

Programming & Development : Alexandra Zaïnal
Concept & Development : Baudouin d'Aumeries
Co-Development & Prog : Marc-Olivier Méhu
Technical & hardware support : Manuel Goepfert

Contact : metmap@orbifly.com




SOURCES & CREDITS :

   NOAA